Time;durP1;ratioP1;P1;durP2;ratioP2;P2;SDS_P1;SDS_P2;PMS_P1;PMS_P2;Temp;Humidity;BMP_temperature;BMP_pressure;BME280_temperature;BME280_humidity;BME280_pressure;Samples;Min_cycle;Max_cycle;Signal;HPM_P1;HPM_P2
2021/12/14 00:02:12;;;;;;;;;;;;;;;-0.55;89.24;101351.01;1723759;81;20169;-77
2021/12/14 00:04:38;;;;;;;;;;;;;;;-0.70;89.19;101349.42;1742224;80;20239;-76
2021/12/14 00:07:08;;;;;;;;;;;;;;;-0.69;89.95;101351.95;1744782;80;21109;-77
2021/12/14 00:09:36;;;;;;;;;;;;;;;-0.70;90.07;101352.02;1745877;80;20130;-78
2021/12/14 00:15:03;;;;;;;;;;;;;;;-0.56;90.24;101362.73;1746268;81;20134;-76
2021/12/14 00:17:35;;;;;;;;;;;;;;;-0.58;90.11;101365.39;1735612;81;20133;-76
2021/12/14 00:20:01;;;;;;;;;;;;;;;-0.45;89.82;101369.70;1738240;81;21098;-77
2021/12/14 00:24:06;;;;;;;;;;;;;;;-0.46;89.48;101371.06;1745132;81;20126;-76
2021/12/14 00:25:00;;;;;;;;;;;;;;;-0.50;89.30;101363.81;1739578;81;20489;-78
2021/12/14 00:27:28;;;;;;;;;;;;;;;-0.42;89.09;101368.30;1740136;81;20201;-78
2021/12/14 00:29:56;;;;;;;;;;;;;;;-0.42;88.66;101370.90;1740243;81;20177;-76
2021/12/14 00:32:24;;;;;;;;;;;;;;;-0.90;89.05;101366.53;1699718;81;21142;-76
2021/12/14 00:34:52;;;;;;;;;;;;;;;-0.74;89.73;101362.49;1703422;81;21161;-78
2021/12/14 00:37:24;;;;;;;;;;;;;;;-0.65;89.54;101368.25;1721125;81;20161;-78
2021/12/14 00:39:50;;;;;;;;;;;;;;;-0.53;89.32;101367.81;1731644;81;20199;-77
2021/12/14 00:42:16;;;;;;;;;;;;;;;-0.52;88.90;101372.11;1748049;81;20148;-77
2021/12/14 00:44:42;;;;;;;;;;;;;;;-0.59;88.39;101375.81;1737655;80;21153;-78
2021/12/14 00:47:08;;;;;;;;;;;;;;;-1.03;89.01;101385.52;1744988;81;20187;-77
2021/12/14 00:49:34;;;;;;;;;;;;;;;-0.92;89.54;101383.88;1714333;81;20158;-77
2021/12/14 00:52:00;;;;;;;;;;;;;;;-0.99;89.59;101382.41;1743889;81;20163;-77
2021/12/14 00:54:27;;;;;;;;;;;;;;;-1.01;89.63;101394.55;1738173;81;20275;-77
2021/12/14 00:56:57;;;;;;;;;;;;;;;-1.21;89.89;101383.11;1713688;80;21158;-78
2021/12/14 00:59:22;;;;;;;;;;;;;;;-1.51;90.74;101383.20;1702167;83;20181;-77
2021/12/14 01:01:52;;;;;;;;;;;;;;;-1.36;91.17;101387.03;1695367;83;21143;-77
2021/12/14 01:04:21;;;;;;;;;;;;;;;-1.30;91.29;101401.09;1699646;83;20866;-77
2021/12/14 01:06:47;;;;;;;;;;;;;;;-1.43;91.29;101402.82;1703320;83;20106;-78
2021/12/14 01:09:15;;;;;;;;;;;;;;;-1.48;91.29;101399.91;1704052;82;21835;-78
2021/12/14 01:11:44;;;;;;;;;;;;;;;-1.57;90.85;101393.75;1701942;83;20581;-77
2021/12/14 01:14:14;;;;;;;;;;;;;;;-1.79;91.56;101395.29;1702919;83;20280;-77
2021/12/14 01:16:55;;;;;;;;;;;;;;;-1.76;92.03;101387.42;1696937;83;20597;-78
2021/12/14 01:19:27;;;;;;;;;;;;;;;-1.60;91.94;101385.20;1695885;83;20644;-78
2021/12/14 01:27:21;;;;;;;;;;;;;;;-1.48;90.45;101381.78;1701748;83;20494;-76
2021/12/14 01:29:49;;;;;;;;;;;;;;;-1.29;90.10;101376.01;1698511;83;20177;-77
2021/12/14 01:32:15;;;;;;;;;;;;;;;-1.24;89.74;101375.44;1692885;83;20240;-77
2021/12/14 01:34:41;;;;;;;;;;;;;;;-1.24;89.52;101381.91;1704918;83;21157;-77
2021/12/14 01:37:13;;;;;;;;;;;;;;;-1.15;89.34;101385.50;1681459;83;20501;-77
2021/12/14 01:42:22;;;;;;;;;;;;;;;-1.14;88.65;101371.63;1671941;83;20153;-76
2021/12/14 01:45:00;;;;;;;;;;;;;;;-1.20;88.31;101376.17;1700804;83;20109;-77
2021/12/14 01:47:32;;;;;;;;;;;;;;;-1.12;88.75;101372.87;1702319;83;21839;-77
2021/12/14 01:50:00;;;;;;;;;;;;;;;-0.96;88.61;101370.63;1700597;83;20149;-76
2021/12/14 01:52:31;;;;;;;;;;;;;;;-1.05;88.19;101372.23;1698892;83;20207;-77
2021/12/14 01:55:02;;;;;;;;;;;;;;;-0.96;88.32;101376.66;1701273;83;21038;-77
2021/12/14 01:57:31;;;;;;;;;;;;;;;-1.00;87.97;101371.16;1738593;80;20167;-77
2021/12/14 02:00:01;;;;;;;;;;;;;;;-0.95;87.86;101369.71;1752069;80;21083;-77
2021/12/14 02:02:40;;;;;;;;;;;;;;;-1.04;87.99;101373.91;1757014;80;20198;-76
2021/12/14 02:05:06;;;;;;;;;;;;;;;-0.92;87.94;101368.31;1762842;80;20132;-76
2021/12/14 02:07:32;;;;;;;;;;;;;;;-0.92;87.72;101360.53;1749391;80;20173;-76
2021/12/14 02:10:02;;;;;;;;;;;;;;;-0.84;87.81;101353.36;1759881;80;20139;-76
2021/12/14 02:12:28;;;;;;;;;;;;;;;-0.82;87.92;101354.14;1761758;80;21186;-76
2021/12/14 02:15:14;;;;;;;;;;;;;;;-0.77;87.80;101352.23;1761345;80;20122;-76
2021/12/14 02:17:39;;;;;;;;;;;;;;;-0.76;87.72;101344.85;1736908;80;20139;-75
2021/12/14 02:20:07;;;;;;;;;;;;;;;-0.72;87.44;101346.88;1758466;80;20175;-78
2021/12/14 02:22:35;;;;;;;;;;;;;;;-0.69;87.41;101351.13;1751462;80;20184;-76
2021/12/14 02:25:00;;;;;;;;;;;;;;;-0.61;87.44;101356.41;1740226;80;21014;-78
2021/12/14 02:27:36;;;;;;;;;;;;;;;-0.65;87.26;101363.06;1743154;81;20478;-77
2021/12/14 02:30:05;;;;;;;;;;;;;;;-0.62;87.22;101357.77;1761383;80;20183;-77
2021/12/14 02:32:33;;;;;;;;;;;;;;;-0.64;86.83;101358.28;1759997;80;20178;-76
2021/12/14 02:35:00;;;;;;;;;;;;;;;-0.58;86.66;101356.77;1761953;80;20182;-76
2021/12/14 02:37:46;;;;;;;;;;;;;;;-0.58;86.30;101365.39;1758755;80;21703;-77
2021/12/14 02:40:53;;;;;;;;;;;;;;;-0.53;86.19;101360.50;1743675;81;20114;-77
2021/12/14 02:43:01;;;;;;;;;;;;;;;-0.51;86.03;101358.25;1750031;81;20949;-76
2021/12/14 02:45:27;;;;;;;;;;;;;;;-0.43;85.82;101352.79;1746258;81;20225;-77
2021/12/14 02:47:54;;;;;;;;;;;;;;;-0.46;85.35;101352.89;1735503;80;20977;-77
2021/12/14 02:50:20;;;;;;;;;;;;;;;-0.45;85.60;101352.84;1729856;80;21112;-77
2021/12/14 02:52:49;;;;;;;;;;;;;;;-0.55;85.65;101355.36;1751259;80;21031;-77
2021/12/14 02:55:18;;;;;;;;;;;;;;;-0.54;85.56;101344.09;1758174;80;20161;-77
2021/12/14 02:57:46;;;;;;;;;;;;;;;-0.63;85.54;101341.37;1746763;80;20208;-77
2021/12/14 03:00:19;;;;;;;;;;;;;;;-0.74;85.61;101346.93;1736246;80;20177;-77
2021/12/14 03:02:45;;;;;;;;;;;;;;;-0.77;85.90;101350.93;1735211;80;22136;-77
2021/12/14 03:05:15;;;;;;;;;;;;;;;-0.73;86.35;101350.36;1737752;81;20209;-79
2021/12/14 03:07:44;;;;;;;;;;;;;;;-0.70;86.30;101339.05;1741250;80;20207;-78
2021/12/14 03:13:02;;;;;;;;;;;;;;;-1.05;86.27;101345.02;1704991;81;20124;-76
2021/12/14 03:15:47;;;;;;;;;;;;;;;-0.95;86.61;101345.95;1739166;80;21103;-76
2021/12/14 03:18:11;;;;;;;;;;;;;;;-1.11;86.72;101359.86;1739353;81;20156;-77
2021/12/14 03:20:44;;;;;;;;;;;;;;;-1.05;86.36;101361.87;1743290;80;20545;-77
2021/12/14 03:23:16;;;;;;;;;;;;;;;-1.32;86.87;101364.45;1743373;81;20196;-77
2021/12/14 03:25:44;;;;;;;;;;;;;;;-1.32;87.32;101364.45;1742926;81;20141;-76
2021/12/14 03:28:11;;;;;;;;;;;;;;;-1.27;87.13;101359.98;1733815;81;21263;-77
2021/12/14 03:30:43;;;;;;;;;;;;;;;-1.17;87.16;101357.47;1740300;81;20177;-77
2021/12/14 03:33:17;;;;;;;;;;;;;;;-1.01;86.57;101353.06;1743047;81;20366;-77
2021/12/14 03:35:45;;;;;;;;;;;;;;;-1.10;86.18;101351.66;1738144;81;20102;-76
2021/12/14 03:38:18;;;;;;;;;;;;;;;-0.97;86.25;101350.78;1740028;81;20475;-77
2021/12/14 03:40:43;;;;;;;;;;;;;;;-0.95;85.86;101346.38;1739163;81;20632;-78
2021/12/14 03:43:12;;;;;;;;;;;;;;;-0.98;85.77;101334.81;1743216;81;20189;-76
2021/12/14 03:45:38;;;;;;;;;;;;;;;-0.96;85.72;101336.92;1743080;81;20179;-76
2021/12/14 03:48:04;;;;;;;;;;;;;;;-0.99;85.49;101333.14;1746997;81;20148;-76
2021/12/14 03:50:35;;;;;;;;;;;;;;;-1.03;85.35;101332.84;1730523;80;20320;-76
2021/12/14 03:53:02;;;;;;;;;;;;;;;-0.97;85.49;101335.22;1726450;81;21500;-77
2021/12/14 03:55:31;;;;;;;;;;;;;;;-1.11;85.03;101333.94;1734722;81;20519;-76
2021/12/14 03:57:57;;;;;;;;;;;;;;;-1.09;85.35;101337.34;1729865;81;20124;-76
2021/12/14 04:00:29;;;;;;;;;;;;;;;-1.13;84.79;101350.45;1727618;81;20230;-77
2021/12/14 04:02:56;;;;;;;;;;;;;;;-1.20;85.04;101353.69;1728922;81;20185;-76
2021/12/14 04:05:24;;;;;;;;;;;;;;;-1.28;85.36;101350.50;1708606;81;21264;-78
2021/12/14 04:07:51;;;;;;;;;;;;;;;-1.27;85.30;101340.55;1714301;81;21084;-78
2021/12/14 04:10:22;;;;;;;;;;;;;;;-1.24;85.01;101343.04;1726128;81;20455;-78
2021/12/14 04:12:52;;;;;;;;;;;;;;;-1.16;85.09;101331.95;1726623;81;20604;-78
2021/12/14 04:15:21;;;;;;;;;;;;;;;-1.19;84.77;101320.40;1720109;81;20216;-78
2021/12/14 04:17:47;;;;;;;;;;;;;;;-1.07;84.84;101322.17;1723891;81;21253;-75
2021/12/14 04:20:22;;;;;;;;;;;;;;;-1.03;84.45;101326.36;1717593;81;20159;-76
2021/12/14 04:22:50;;;;;;;;;;;;;;;-1.01;84.06;101324.55;1724138;81;20205;-76
2021/12/14 04:25:20;;;;;;;;;;;;;;;-1.01;84.00;101327.14;1740280;81;20172;-76
2021/12/14 04:27:48;;;;;;;;;;;;;;;-1.04;83.56;101335.02;1714251;81;20239;-76
2021/12/14 04:30:15;;;;;;;;;;;;;;;-1.16;83.49;101347.52;1750921;81;21966;-78
2021/12/14 04:32:41;;;;;;;;;;;;;;;-1.36;83.73;101342.14;1723329;80;20117;-76
2021/12/14 04:35:08;;;;;;;;;;;;;;;-1.29;84.05;101328.07;1710766;81;20200;-76
2021/12/14 04:37:39;;;;;;;;;;;;;;;-1.23;84.12;101319.25;1721031;81;21199;-77
2021/12/14 04:40:23;;;;;;;;;;;;;;;-1.25;84.10;101324.49;1714332;81;20139;-76
2021/12/14 04:53:51;;;;;;;;;;;;;;;-1.37;83.83;101317.12;1729922;80;20558;-77
2021/12/14 04:56:23;;;;;;;;;;;;;;;-1.45;83.40;101322.09;1715509;81;21292;-77
2021/12/14 04:58:55;;;;;;;;;;;;;;;-1.66;84.24;101327.99;1745454;80;20758;-77
2021/12/14 05:01:23;;;;;;;;;;;;;;;-1.58;84.27;101328.59;1731239;80;20182;-77
2021/12/14 05:03:55;;;;;;;;;;;;;;;-1.63;84.05;101327.90;1751208;80;20195;-77
2021/12/14 05:06:24;;;;;;;;;;;;;;;-1.65;83.87;101334.84;1751210;80;20655;-76
2021/12/14 05:11:22;;;;;;;;;;;;;;;-1.73;84.28;101344.16;1745182;80;20144;-77
2021/12/14 05:14:11;;;;;;;;;;;;;;;-1.87;84.36;101347.16;1744126;80;20123;-77
2021/12/14 05:16:37;;;;;;;;;;;;;;;-1.87;84.85;101348.45;1718101;82;20852;-76
2021/12/14 05:19:05;;;;;;;;;;;;;;;-1.72;84.76;101339.84;1706264;82;20170;-76
2021/12/14 05:21:41;;;;;;;;;;;;;;;-1.68;84.60;101335.81;1716196;83;21335;-76
2021/12/14 05:24:09;;;;;;;;;;;;;;;-1.62;84.27;101330.86;1719984;82;20159;-76
2021/12/14 05:26:35;;;;;;;;;;;;;;;-1.78;84.10;101325.79;1717311;82;20178;-77
2021/12/14 05:29:02;;;;;;;;;;;;;;;-1.72;84.50;101326.89;1717720;82;20277;-77
2021/12/14 05:31:28;;;;;;;;;;;;;;;-1.65;84.30;101324.48;1714009;81;20217;-77
2021/12/14 05:33:56;;;;;;;;;;;;;;;-1.59;84.19;101327.34;1713416;83;21505;-77
2021/12/14 05:36:23;;;;;;;;;;;;;;;-1.58;84.32;101322.11;1715414;83;20182;-77
2021/12/14 05:39:06;;;;;;;;;;;;;;;-1.60;84.36;101321.33;1712922;82;20261;-76
2021/12/14 05:44:18;;;;;;;;;;;;;;;-1.86;84.62;101328.16;1715900;83;20152;-76
2021/12/14 05:46:50;;;;;;;;;;;;;;;-1.88;84.81;101320.89;1704590;82;20166;-76
2021/12/14 05:49:14;;;;;;;;;;;;;;;-1.74;85.00;101320.89;1714220;82;20473;-78
2021/12/14 05:51:43;;;;;;;;;;;;;;;-1.89;85.13;101316.60;1716329;82;20131;-79
2021/12/14 05:54:09;;;;;;;;;;;;;;;-1.88;85.13;101319.60;1714558;82;20757;-78
2021/12/14 05:56:35;;;;;;;;;;;;;;;-1.88;85.19;101317.02;1714248;82;20154;-78
2021/12/14 05:59:06;;;;;;;;;;;;;;;-1.73;85.01;101320.01;1715591;83;21000;-78
2021/12/14 06:01:32;;;;;;;;;;;;;;;-1.67;84.72;101320.66;1718358;82;20912;-78
2021/12/14 06:04:04;;;;;;;;;;;;;;;-1.61;84.44;101323.97;1719631;81;20135;-78
2021/12/14 06:06:41;;;;;;;;;;;;;;;-1.61;84.21;101322.21;1703666;83;20207;-77
2021/12/14 06:09:15;;;;;;;;;;;;;;;-1.61;83.80;101314.44;1715221;82;20446;-77
2021/12/14 06:11:41;;;;;;;;;;;;;;;-1.65;83.64;101312.84;1715148;83;21146;-77
2021/12/14 06:14:17;;;;;;;;;;;;;;;-1.66;83.76;101318.93;1717259;82;20213;-77
2021/12/14 06:16:46;;;;;;;;;;;;;;;-1.67;84.02;101312.05;1721077;82;20845;-77
2021/12/14 06:19:25;;;;;;;;;;;;;;;-1.58;84.29;101310.92;1723445;81;20814;-77
2021/12/14 06:21:59;;;;;;;;;;;;;;;-1.50;83.94;101308.91;1722614;82;20121;-77
2021/12/14 06:24:27;;;;;;;;;;;;;;;-1.52;83.89;101307.67;1721675;83;21176;-83
2021/12/14 06:26:57;;;;;;;;;;;;;;;-1.47;83.77;101312.24;1727916;82;20162;-83
2021/12/14 06:29:26;;;;;;;;;;;;;;;-1.34;83.90;101298.88;1709893;81;20263;-85
2021/12/14 06:31:52;;;;;;;;;;;;;;;-1.30;83.79;101300.02;1705359;82;20153;-82
2021/12/14 06:34:21;;;;;;;;;;;;;;;-1.22;83.36;101293.28;1722668;82;20225;-83
2021/12/14 06:37:04;;;;;;;;;;;;;;;-1.19;83.27;101295.77;1724209;82;21162;-83
2021/12/14 06:39:29;;;;;;;;;;;;;;;-1.22;83.12;101290.70;1725202;81;20179;-86
2021/12/14 06:42:05;;;;;;;;;;;;;;;-1.13;82.53;101294.73;1681831;83;20162;-83
2021/12/14 06:44:33;;;;;;;;;;;;;;;-1.23;82.49;101286.86;1725171;82;20540;-85
2021/12/14 06:46:58;;;;;;;;;;;;;;;-1.12;82.29;101286.03;1724847;82;20198;-86
2021/12/14 06:49:24;;;;;;;;;;;;;;;-1.11;82.17;101288.58;1726094;82;21062;-86
2021/12/14 06:51:53;;;;;;;;;;;;;;;-1.19;81.96;101282.81;1723196;81;20122;-86
2021/12/14 06:54:21;;;;;;;;;;;;;;;-1.19;82.49;101277.63;1725787;81;20126;-83
2021/12/14 06:56:54;;;;;;;;;;;;;;;-1.15;82.46;101281.83;1704867;82;21547;-84
2021/12/14 06:59:22;;;;;;;;;;;;;;;-1.23;82.58;101282.52;1725342;81;20186;-83
2021/12/14 07:01:56;;;;;;;;;;;;;;;-1.31;83.03;101288.42;1723321;82;21133;-86
2021/12/14 07:04:25;;;;;;;;;;;;;;;-1.45;83.41;101289.71;1728241;81;20585;-86
2021/12/14 07:06:55;;;;;;;;;;;;;;;-1.37;83.76;101282.98;1724851;81;20185;-84
2021/12/14 07:09:38;;;;;;;;;;;;;;;-1.31;83.70;101280.64;1723323;81;20186;-86
2021/12/14 07:12:08;;;;;;;;;;;;;;;-1.67;84.14;101292.62;1724377;81;20158;-84
2021/12/14 07:14:58;;;;;;;;;;;;;;;-1.63;84.57;101286.00;1724104;82;21202;-84
2021/12/14 07:17:29;;;;;;;;;;;;;;;-1.51;84.65;101280.87;1712541;81;20500;-85
2021/12/14 07:20:08;;;;;;;;;;;;;;;-1.37;84.50;101282.14;1726331;81;20694;-85
2021/12/14 07:23:04;;;;;;;;;;;;;;;-1.31;83.50;101283.23;1729634;81;21160;-83
2021/12/14 07:25:33;;;;;;;;;;;;;;;-1.54;83.71;101286.59;1735665;80;20265;-85
2021/12/14 07:28:08;;;;;;;;;;;;;;;-1.57;84.18;101290.14;1728500;81;21248;-87
2021/12/14 07:30:47;;;;;;;;;;;;;;;-1.40;83.98;101283.55;1734558;80;20123;-85
2021/12/14 07:33:15;;;;;;;;;;;;;;;-1.31;83.67;101280.64;1729141;81;20233;-86
2021/12/14 07:35:55;;;;;;;;;;;;;;;-1.16;83.04;101277.53;1732685;81;20159;-88
2021/12/14 07:38:36;;;;;;;;;;;;;;;-1.24;83.22;101278.25;1725244;81;20178;-85
2021/12/14 07:41:21;;;;;;;;;;;;;;;-1.26;83.35;101268.36;1723252;82;21083;-87
2021/12/14 07:44:12;;;;;;;;;;;;;;;-1.27;83.22;101270.13;1693973;82;20515;-89
2021/12/14 07:46:43;;;;;;;;;;;;;;;-1.13;83.61;101272.23;1724993;82;20184;-89
2021/12/14 07:49:27;;;;;;;;;;;;;;;-1.01;83.39;101275.30;1725175;82;20118;-87
2021/12/14 07:52:16;;;;;;;;;;;;;;;-1.02;83.24;101278.34;1725900;82;20280;-85
2021/12/14 07:54:47;;;;;;;;;;;;;;;-0.99;83.22;101278.23;1725031;82;21053;-87
2021/12/14 07:57:25;;;;;;;;;;;;;;;-1.06;83.30;101272.02;1724070;83;20119;-85
2021/12/14 08:00:00;;;;;;;;;;;;;;;-1.15;83.05;101276.64;1724071;82;20520;-86
2021/12/14 08:02:31;;;;;;;;;;;;;;;-1.05;82.79;101283.64;1723401;83;20206;-89
2021/12/14 08:05:04;;;;;;;;;;;;;;;-1.10;82.90;101298.05;1725434;82;20175;-85
2021/12/14 08:07:36;;;;;;;;;;;;;;;-0.96;83.14;101291.55;1725423;82;20098;-87
2021/12/14 08:10:23;;;;;;;;;;;;;;;-1.10;83.06;101287.69;1735078;82;20609;-85
2021/12/14 08:13:07;;;;;;;;;;;;;;;-0.92;83.21;101289.23;1725549;83;20112;-87
2021/12/14 08:15:49;;;;;;;;;;;;;;;-0.91;83.16;101287.87;1722937;83;20182;-89
2021/12/14 08:18:17;;;;;;;;;;;;;;;-0.72;83.07;101288.06;1717031;83;20211;-85
2021/12/14 08:20:59;;;;;;;;;;;;;;;-0.83;82.81;101289.36;1725461;82;21059;-88
2021/12/14 08:23:31;;;;;;;;;;;;;;;-1.00;83.56;101292.55;1727138;81;20126;-85
2021/12/14 08:26:04;;;;;;;;;;;;;;;-0.98;83.71;101291.61;1726582;82;20130;-89
2021/12/14 08:28:32;;;;;;;;;;;;;;;-0.99;83.98;101295.09;1723372;81;20179;-89
2021/12/14 08:31:03;;;;;;;;;;;;;;;-1.07;84.53;101289.77;1726048;81;20158;-90
2021/12/14 08:33:31;;;;;;;;;;;;;;;-1.02;84.64;101289.17;1725404;81;21092;-89
2021/12/14 08:35:59;;;;;;;;;;;;;;;-1.10;85.29;101285.09;1724169;82;20863;-88
2021/12/14 08:38:32;;;;;;;;;;;;;;;-0.95;85.11;101293.23;1726653;81;20504;-86
2021/12/14 08:41:00;;;;;;;;;;;;;;;-0.79;85.35;101291.80;1723554;82;20148;-91
2021/12/14 08:43:33;;;;;;;;;;;;;;;-0.79;84.53;101286.61;1725620;81;20495;-90
2021/12/14 08:46:07;;;;;;;;;;;;;;;-0.76;84.85;101291.69;1725827;81;20628;-91
2021/12/14 08:48:42;;;;;;;;;;;;;;;-0.60;84.64;101285.94;1723477;82;20472;-89
2021/12/14 08:51:17;;;;;;;;;;;;;;;-0.49;84.30;101282.95;1727629;81;20155;-89
2021/12/14 08:53:46;;;;;;;;;;;;;;;-0.39;84.03;101285.15;1723967;83;20103;-89
2021/12/14 08:56:13;;;;;;;;;;;;;;;-0.33;83.49;101285.81;1709538;82;20174;-93
2021/12/14 08:58:42;;;;;;;;;;;;;;;-0.28;83.54;101278.25;1723906;81;21052;-85
2021/12/14 09:01:13;;;;;;;;;;;;;;;-0.26;83.62;101282.09;1725102;81;20127;-86
2021/12/14 09:03:43;;;;;;;;;;;;;;;-0.23;83.52;101276.78;1725794;82;20090;-87
2021/12/14 09:06:10;;;;;;;;;;;;;;;-0.16;83.47;101279.97;1726532;82;20138;-84
2021/12/14 09:08:37;;;;;;;;;;;;;;;-0.07;83.40;101275.73;1734715;82;20179;-84
2021/12/14 09:11:09;;;;;;;;;;;;;;;0.02;83.35;101274.06;1726995;82;22040;-87
2021/12/14 09:13:37;;;;;;;;;;;;;;;0.07;83.05;101277.78;1728220;82;20207;-85
2021/12/14 09:16:10;;;;;;;;;;;;;;;0.09;82.68;101265.57;1715236;82;20395;-87
2021/12/14 09:18:39;;;;;;;;;;;;;;;0.16;82.59;101265.73;1697146;82;20155;-83
2021/12/14 09:21:13;;;;;;;;;;;;;;;0.23;82.26;101269.75;1690231;82;20140;-86
2021/12/14 09:23:42;;;;;;;;;;;;;;;0.24;82.22;101273.22;1674500;83;21326;-87
2021/12/14 09:26:11;;;;;;;;;;;;;;;0.30;82.12;101268.61;1663263;83;20223;-86
2021/12/14 09:28:40;;;;;;;;;;;;;;;0.25;81.93;101264.49;1686104;83;20624;-88
2021/12/14 09:31:08;;;;;;;;;;;;;;;0.32;82.03;101259.45;1677008;83;20187;-87
2021/12/14 09:33:36;;;;;;;;;;;;;;;0.29;81.98;101251.31;1677698;83;20207;-86
2021/12/14 09:36:10;;;;;;;;;;;;;;;0.33;82.06;101248.99;1674586;83;21082;-87
2021/12/14 09:38:33;;;;;;;;;;;;;;;0.41;82.11;101245.25;1691687;83;20205;-88
2021/12/14 09:41:04;;;;;;;;;;;;;;;0.44;82.03;101248.55;1682636;83;20488;-88
2021/12/14 09:43:30;;;;;;;;;;;;;;;0.44;82.24;101245.12;1678548;83;20218;-89
2021/12/14 09:45:59;;;;;;;;;;;;;;;0.48;82.28;101236.27;1675102;83;20199;-88
2021/12/14 09:48:30;;;;;;;;;;;;;;;0.44;82.49;101228.23;1657245;83;21063;-86
2021/12/14 09:50:58;;;;;;;;;;;;;;;0.52;82.46;101231.34;1668209;83;20195;-89
2021/12/14 09:53:26;;;;;;;;;;;;;;;0.57;82.52;101224.19;1674595;83;20172;-89
2021/12/14 09:55:54;;;;;;;;;;;;;;;0.64;82.37;101225.62;1676193;83;20238;-86
2021/12/14 09:58:24;;;;;;;;;;;;;;;0.62;82.20;101220.09;1676396;83;20179;-86
2021/12/14 10:00:56;;;;;;;;;;;;;;;0.59;82.66;101224.12;1681948;83;21121;-87
2021/12/14 10:03:27;;;;;;;;;;;;;;;0.75;82.55;101221.73;1652476;83;20143;-87
2021/12/14 10:05:57;;;;;;;;;;;;;;;0.67;82.25;101220.30;1674753;83;20163;-88
2021/12/14 10:08:26;;;;;;;;;;;;;;;0.71;82.54;101211.45;1694403;82;20321;-87
2021/12/14 10:11:03;;;;;;;;;;;;;;;0.71;82.62;101210.16;1690720;83;20205;-88
2021/12/14 10:13:28;;;;;;;;;;;;;;;0.77;82.67;101209.50;1686858;83;20195;-88
2021/12/14 10:15:58;;;;;;;;;;;;;;;0.75;82.48;101226.46;1674773;82;20174;-87
2021/12/14 10:18:33;;;;;;;;;;;;;;;0.76;82.58;101221.62;1703291;82;20676;-90
2021/12/14 10:21:23;;;;;;;;;;;;;;;0.77;82.71;101223.80;1709201;82;21259;-85
2021/12/14 10:23:49;;;;;;;;;;;;;;;0.71;83.15;101210.59;1707333;82;20168;-86
2021/12/14 10:26:17;;;;;;;;;;;;;;;0.78;83.43;101212.46;1703200;83;20615;-85
2021/12/14 10:28:46;;;;;;;;;;;;;;;0.87;83.36;101219.43;1700620;83;20644;-89
2021/12/14 10:31:15;;;;;;;;;;;;;;;0.96;83.46;101220.76;1705912;83;20133;-85
2021/12/14 10:33:43;;;;;;;;;;;;;;;0.99;83.32;101220.63;1701616;83;21123;-83
2021/12/14 10:36:21;;;;;;;;;;;;;;;1.09;83.52;101210.67;1705133;82;20142;-84
2021/12/14 10:39:00;;;;;;;;;;;;;;;1.08;83.27;101213.71;1702443;82;20233;-84
2021/12/14 10:43:57;;;;;;;;;;;;;;;0.98;83.58;101214.19;1707307;82;20193;-86
2021/12/14 10:46:29;;;;;;;;;;;;;;;1.08;83.80;101211.58;1703734;82;20111;-85
2021/12/14 10:48:58;;;;;;;;;;;;;;;1.17;84.13;101209.03;1699649;83;20153;-82
2021/12/14 10:51:35;;;;;;;;;;;;;;;1.28;83.84;101208.08;1703440;83;21160;-83
2021/12/14 10:54:03;;;;;;;;;;;;;;;1.43;83.11;101211.28;1715563;82;37607;-85
2021/12/14 10:56:35;;;;;;;;;;;;;;;1.45;82.60;101209.07;1703111;83;20130;-86
2021/12/14 10:59:03;;;;;;;;;;;;;;;1.50;82.35;101209.69;1702555;83;20459;-85
2021/12/14 11:01:33;;;;;;;;;;;;;;;1.54;82.24;101208.61;1703749;82;20182;-85
2021/12/14 11:04:02;;;;;;;;;;;;;;;1.62;82.27;101211.72;1701630;82;20984;-84
2021/12/14 11:06:33;;;;;;;;;;;;;;;1.60;82.13;101204.42;1700141;82;20125;-84
2021/12/14 11:11:49;;;;;;;;;;;;;;;1.55;82.05;101201.20;1700858;83;20181;-84
2021/12/14 11:14:24;;;;;;;;;;;;;;;1.50;82.12;101201.88;1699923;81;20205;-86
2021/12/14 11:19:48;;;;;;;;;;;;;;;1.43;82.52;101182.64;1704492;83;20159;-85
2021/12/14 11:22:22;;;;;;;;;;;;;;;1.56;82.52;101177.70;1715048;82;20223;-84
2021/12/14 11:24:56;;;;;;;;;;;;;;;1.61;82.54;101178.78;1713271;81;20202;-84
2021/12/14 11:27:25;;;;;;;;;;;;;;;1.64;82.33;101170.83;1714356;83;20159;-84
2021/12/14 11:29:55;;;;;;;;;;;;;;;1.60;82.24;101171.88;1713853;82;21119;-86
2021/12/14 11:32:22;;;;;;;;;;;;;;;1.67;82.21;101169.84;1716363;82;20091;-85
2021/12/14 11:34:48;;;;;;;;;;;;;;;1.60;82.42;101162.77;1705626;83;20585;-80
2021/12/14 11:37:16;;;;;;;;;;;;;;;1.55;82.58;101160.84;1715473;82;20163;-80
2021/12/14 11:39:45;;;;;;;;;;;;;;;1.42;83.05;101165.33;1716048;80;20154;-79
2021/12/14 11:42:22;;;;;;;;;;;;;;;1.48;83.26;101164.68;1717827;81;21096;-81
2021/12/14 11:44:56;;;;;;;;;;;;;;;1.51;83.30;101165.37;1714944;82;20165;-81
2021/12/14 11:50:18;;;;;;;;;;;;;;;1.36;83.79;101177.33;1713775;82;20126;-79
2021/12/14 11:52:57;;;;;;;;;;;;;;;1.29;84.19;101177.25;1715333;83;20670;-77
2021/12/14 11:55:49;;;;;;;;;;;;;;;1.31;84.60;101179.31;1714422;83;22058;-79
2021/12/14 11:58:37;;;;;;;;;;;;;;;1.34;84.33;101179.17;1712752;81;20861;-80
2021/12/14 12:01:10;;;;;;;;;;;;;;;1.35;84.29;101170.45;1714312;83;20205;-79
2021/12/14 12:03:45;;;;;;;;;;;;;;;1.37;84.29;101169.09;1716192;83;20790;-80
2021/12/14 12:12:07;;;;;;;;;;;;;;;1.48;84.41;101175.09;1701099;83;20130;-79
2021/12/14 12:14:53;;;;;;;;;;;;;;;1.54;84.28;101164.36;1715680;82;20174;-80
2021/12/14 12:17:45;;;;;;;;;;;;;;;1.58;84.45;101171.12;1702295;82;20135;-78
2021/12/14 12:20:22;;;;;;;;;;;;;;;1.51;84.70;101167.11;1684605;83;20200;-81
2021/12/14 12:22:59;;;;;;;;;;;;;;;1.51;85.22;101147.58;1683743;83;20133;-79
2021/12/14 12:25:31;;;;;;;;;;;;;;;1.60;85.42;101151.05;1691078;83;20737;-81
2021/12/14 12:28:04;;;;;;;;;;;;;;;1.66;85.38;101144.72;1681253;83;20490;-79
2021/12/14 12:30:35;;;;;;;;;;;;;;;1.59;85.18;101148.91;1683425;83;20140;-81
2021/12/14 12:33:11;;;;;;;;;;;;;;;1.71;85.20;101137.08;1682156;84;20321;-81
2021/12/14 12:35:40;;;;;;;;;;;;;;;1.79;85.24;101138.84;1681067;85;21160;-78
2021/12/14 12:38:19;;;;;;;;;;;;;;;1.81;84.89;101141.84;1678597;84;20126;-80
2021/12/14 12:40:48;;;;;;;;;;;;;;;1.83;84.91;101139.99;1684994;82;20155;-80
2021/12/14 12:43:18;;;;;;;;;;;;;;;1.91;84.81;101136.54;1682594;83;20176;-79
2021/12/14 12:45:58;;;;;;;;;;;;;;;1.85;84.21;101137.70;1679740;84;21029;-79
2021/12/14 12:48:42;;;;;;;;;;;;;;;1.83;84.56;101138.69;1682442;83;20860;-79
2021/12/14 12:51:10;;;;;;;;;;;;;;;1.81;84.67;101132.72;1681458;83;20207;-80
2021/12/14 12:53:37;;;;;;;;;;;;;;;1.78;84.89;101134.54;1682870;83;20587;-79
2021/12/14 12:56:10;;;;;;;;;;;;;;;1.82;85.04;101135.69;1681241;85;20197;-80
2021/12/14 12:58:41;;;;;;;;;;;;;;;1.85;84.96;101144.66;1659980;85;20230;-80
2021/12/14 13:01:09;;;;;;;;;;;;;;;1.90;84.92;101137.48;1678815;85;20515;-82
2021/12/14 13:03:40;;;;;;;;;;;;;;;1.88;84.71;101137.55;1682115;83;20184;-80
2021/12/14 13:06:10;;;;;;;;;;;;;;;1.86;84.75;101138.53;1681974;85;20146;-80
2021/12/14 13:08:41;;;;;;;;;;;;;;;1.81;84.61;101140.53;1681368;84;20173;-80
2021/12/14 13:11:22;;;;;;;;;;;;;;;1.84;84.77;101137.78;1683003;83;20209;-82
2021/12/14 13:14:01;;;;;;;;;;;;;;;1.94;84.74;101125.97;1686494;83;21320;-82
2021/12/14 13:16:34;;;;;;;;;;;;;;;1.90;84.87;101115.34;1681139;83;20124;-82
2021/12/14 13:19:14;;;;;;;;;;;;;;;1.91;84.81;101117.87;1714837;82;20191;-81
2021/12/14 13:22:01;;;;;;;;;;;;;;;1.91;84.99;101122.22;1718458;82;20517;-81
2021/12/14 13:24:33;;;;;;;;;;;;;;;1.92;85.16;101122.61;1730333;81;20271;-80
2021/12/14 13:27:10;;;;;;;;;;;;;;;1.98;85.08;101121.00;1718589;82;21257;-80
2021/12/14 13:29:46;;;;;;;;;;;;;;;1.97;85.12;101127.12;1724907;81;20278;-79
2021/12/14 13:32:21;;;;;;;;;;;;;;;1.88;85.43;101121.06;1715253;82;20170;-80
2021/12/14 13:34:54;;;;;;;;;;;;;;;1.87;85.65;101122.00;1713630;83;20491;-80
2021/12/14 13:37:26;;;;;;;;;;;;;;;1.83;85.89;101126.97;1714002;82;20246;-77
2021/12/14 13:39:53;;;;;;;;;;;;;;;1.88;86.17;101123.67;1715512;82;21939;-79
2021/12/14 13:42:25;;;;;;;;;;;;;;;1.87;86.22;101122.84;1689592;82;20099;-82
2021/12/14 13:44:52;;;;;;;;;;;;;;;1.86;86.62;101129.42;1721093;81;20975;-81
2021/12/14 13:47:25;;;;;;;;;;;;;;;1.96;86.61;101129.36;1713049;82;20187;-80
2021/12/14 13:49:51;;;;;;;;;;;;;;;1.88;87.04;101124.97;1715807;82;20122;-82